createdAt,value
2019-01-02T00:00:19.759Z,5.20
2019-01-02T00:02:35.932Z,3.37
2019-01-02T00:04:52.099Z,4.30
2019-01-02T00:07:08.067Z,5.50
2019-01-02T00:09:23.740Z,4.03
2019-01-02T00:11:40.011Z,3.30
2019-01-02T00:13:56.307Z,4.67
2019-01-02T00:16:12.254Z,3.77
2019-01-02T00:18:29.020Z,4.00
2019-01-02T00:20:44.868Z,4.37
2019-01-02T00:23:02.039Z,3.72
2019-01-02T00:25:18.143Z,5.00
2019-01-02T00:27:33.987Z,3.70
2019-01-02T00:29:50.699Z,4.33
2019-01-02T00:32:06.841Z,4.50
2019-01-02T00:34:23.848Z,3.47
2019-01-02T00:36:40.356Z,5.80
2019-01-02T00:38:57.089Z,4.80
2019-01-02T00:41:12.775Z,3.10
2019-01-02T00:43:29.195Z,4.10
2019-01-02T00:45:45.515Z,2.73
2019-01-02T00:48:01.831Z,3.93
2019-01-02T00:50:18.572Z,4.87
2019-01-02T00:52:34.683Z,3.90
2019-01-02T00:54:50.687Z,4.17
2019-01-02T00:57:07.293Z,4.05
2019-01-02T00:59:24.210Z,3.70
2019-01-02T01:01:40.564Z,4.65
2019-01-02T01:03:57.276Z,4.47
2019-01-02T01:06:13.734Z,3.90
2019-01-02T01:08:30.625Z,3.30
2019-01-02T01:10:47.378Z,4.30
2019-01-02T01:13:03.405Z,3.58
2019-01-02T01:17:36.742Z,4.73
2019-01-02T01:19:52.615Z,3.45
2019-01-02T01:22:09.440Z,3.23
2019-01-02T01:24:25.495Z,3.20
2019-01-02T01:26:42.346Z,3.72
2019-01-02T01:28:57.902Z,3.40
2019-01-02T01:33:31.754Z,2.70
2019-01-02T01:35:48.148Z,2.60
2019-01-02T01:38:04.449Z,3.15
2019-01-02T01:40:20.747Z,2.73
2019-01-02T01:42:36.695Z,2.90
2019-01-02T01:44:52.395Z,3.00
2019-01-02T01:47:09.837Z,2.90
2019-01-02T01:51:44.433Z,2.75
2019-01-02T01:54:00.928Z,2.73
2019-01-02T01:56:16.983Z,2.50
2019-01-02T01:58:33.438Z,2.30
2019-01-02T02:00:50.259Z,3.33
2019-01-02T02:03:07.235Z,2.53
2019-01-02T02:05:24.150Z,2.70
2019-01-02T02:07:41.255Z,2.63
2019-01-02T02:09:57.971Z,2.50
2019-01-02T02:12:14.107Z,2.70
2019-01-02T02:14:30.679Z,2.40
2019-01-02T02:16:46.809Z,2.40
2019-01-02T02:19:03.001Z,2.40
2019-01-02T02:21:18.935Z,1.70
2019-01-02T02:23:36.083Z,1.72
2019-01-02T02:25:52.731Z,2.77
2019-01-02T02:28:08.820Z,2.30
2019-01-02T02:30:25.413Z,2.20
2019-01-02T02:32:41.421Z,1.80
2019-01-02T02:34:58.068Z,2.37
2019-01-02T02:37:13.925Z,2.60
2019-01-02T02:39:30.868Z,1.90
2019-01-02T02:41:47.450Z,2.20
2019-01-02T02:44:04.448Z,2.37
2019-01-02T02:46:21.240Z,1.60
2019-01-02T02:48:38.034Z,2.53
2019-01-02T02:50:54.664Z,1.70
2019-01-02T02:53:10.920Z,2.00
2019-01-02T02:55:28.148Z,1.50
2019-01-02T02:57:44.491Z,2.17
2019-01-02T03:00:00.863Z,1.80
2019-01-02T03:02:16.831Z,2.00
2019-01-02T03:04:33.528Z,1.60
2019-01-02T03:06:52.021Z,1.70
2019-01-02T03:09:08.265Z,1.63
2019-01-02T03:11:25.048Z,1.60
2019-01-02T03:13:41.335Z,2.10
2019-01-02T03:15:58.447Z,2.40
2019-01-02T03:18:14.786Z,2.02
2019-01-02T03:20:30.925Z,2.10
2019-01-02T03:22:46.697Z,2.10
2019-01-02T03:27:20.861Z,1.50
2019-01-02T03:29:36.980Z,2.12
2019-01-02T03:31:53.622Z,2.40
2019-01-02T03:34:10.147Z,2.90
2019-01-02T03:36:26.045Z,1.90
2019-01-02T03:38:41.915Z,2.90
2019-01-02T03:40:58.796Z,2.40
2019-01-02T03:43:15.452Z,2.83
2019-01-02T03:45:32.175Z,2.30
2019-01-02T03:47:48.602Z,2.13
2019-01-02T03:50:05.050Z,2.10
2019-01-02T03:52:20.787Z,2.80
2019-01-02T03:54:37.240Z,2.40
2019-01-02T03:56:53.079Z,2.60
2019-01-02T03:59:09.120Z,3.07
2019-01-02T04:01:26.432Z,2.60
2019-01-02T04:03:42.727Z,2.10
2019-01-02T04:05:58.604Z,2.23
2019-01-02T04:08:14.375Z,2.67
2019-01-02T04:10:30.967Z,2.10
2019-01-02T04:12:47.479Z,2.60
2019-01-02T04:15:03.134Z,2.33
2019-01-02T04:17:19.809Z,2.33
2019-01-02T04:19:36.120Z,3.20
2019-01-02T04:21:52.943Z,3.20
2019-01-02T04:24:09.043Z,2.70
2019-01-02T04:26:24.808Z,2.70
2019-01-02T04:28:41.196Z,2.90
2019-01-02T04:30:57.638Z,2.53
2019-01-02T04:33:14.163Z,2.70
2019-01-02T04:35:30.701Z,2.17
2019-01-02T04:37:47.104Z,3.10
2019-01-02T04:40:04.137Z,2.42
2019-01-02T04:42:19.843Z,2.77
2019-01-02T04:44:36.244Z,2.50
2019-01-02T04:46:52.854Z,3.40
2019-01-02T04:49:09.677Z,3.63
2019-01-02T04:51:25.673Z,2.20
2019-01-02T04:53:41.523Z,2.50
2019-01-02T04:55:58.127Z,2.72
2019-01-02T04:58:14.535Z,2.50
2019-01-02T05:00:30.455Z,2.80
2019-01-02T05:02:46.550Z,2.40
2019-01-02T05:05:03.244Z,2.33
2019-01-02T05:07:19.685Z,3.33
2019-01-02T05:09:36.562Z,3.00
2019-01-02T05:11:52.532Z,2.60
2019-01-02T05:14:09.131Z,2.77
2019-01-02T05:16:25.103Z,2.45
2019-01-02T05:18:41.026Z,2.60
2019-01-02T05:20:57.099Z,3.00
2019-01-02T05:23:12.933Z,1.90
2019-01-02T05:25:29.078Z,1.80
2019-01-02T05:27:45.784Z,2.13
2019-01-02T05:30:01.913Z,2.00
2019-01-02T05:32:18.211Z,2.20
2019-01-02T05:34:34.566Z,2.40
2019-01-02T05:36:51.583Z,2.65
2019-01-02T05:39:07.481Z,2.10
2019-01-02T05:41:23.750Z,1.90
2019-01-02T05:43:39.971Z,2.30
2019-01-02T05:45:56.799Z,3.00
2019-01-02T05:48:13.527Z,2.97
2019-01-02T05:50:29.823Z,2.20
2019-01-02T05:52:46.027Z,2.40
2019-01-02T05:55:01.811Z,2.47
2019-01-02T05:57:18.035Z,1.90
2019-01-02T05:59:34.036Z,1.50
2019-01-02T06:01:50.741Z,2.10
2019-01-02T06:04:07.027Z,1.77
2019-01-02T06:06:23.607Z,2.07
2019-01-02T06:08:40.330Z,1.30
2019-01-02T06:10:56.740Z,1.72
2019-01-02T06:13:13.788Z,1.80
2019-01-02T06:15:29.575Z,1.50
2019-01-02T06:17:46.447Z,1.70
2019-01-02T06:20:02.348Z,1.70
2019-01-02T06:22:18.567Z,2.10
2019-01-02T06:24:34.720Z,1.70
2019-01-02T06:26:50.360Z,1.50
2019-01-02T06:29:06.809Z,1.60
2019-01-02T06:31:22.451Z,1.77
2019-01-02T06:33:38.375Z,1.20
2019-01-02T06:35:54.608Z,1.40
2019-01-02T06:38:10.712Z,1.30
2019-01-02T06:40:27.125Z,1.50
2019-01-02T06:42:43.344Z,1.70
2019-01-02T06:45:00.003Z,1.50
2019-01-02T06:47:16.074Z,1.50
2019-01-02T06:49:32.621Z,1.25
2019-01-02T06:54:05.523Z,0.90
2019-01-02T06:56:22.260Z,1.30
2019-01-02T06:58:37.660Z,1.40
2019-01-02T07:00:53.611Z,1.10
2019-01-02T07:03:10.151Z,1.10
2019-01-02T07:05:26.253Z,1.23
2019-01-02T07:07:42.592Z,1.30
2019-01-02T07:09:58.995Z,0.98
2019-01-02T07:12:15.106Z,1.12
2019-01-02T07:14:31.519Z,1.00
2019-01-02T07:16:47.421Z,1.20
2019-01-02T07:19:02.909Z,1.10
2019-01-02T07:21:18.752Z,1.00
2019-01-02T07:23:35.473Z,1.30
2019-01-02T07:25:51.664Z,1.00
2019-01-02T07:28:07.346Z,1.17
2019-01-02T07:30:23.493Z,1.00
2019-01-02T07:32:39.041Z,1.10
2019-01-02T07:34:55.031Z,1.10
2019-01-02T07:37:10.851Z,1.00
2019-01-02T07:39:27.011Z,1.10
2019-01-02T07:41:43.330Z,1.37
2019-01-02T07:44:00.156Z,1.40
2019-01-02T07:46:16.566Z,1.10
2019-01-02T07:48:32.188Z,1.40
2019-01-02T07:50:48.157Z,1.00
2019-01-02T07:53:04.179Z,1.27
2019-01-02T07:55:20.081Z,0.80
2019-01-02T07:57:36.023Z,1.30
2019-01-02T07:59:52.125Z,1.20
2019-01-02T08:02:08.312Z,1.20
2019-01-02T08:04:25.200Z,1.00
2019-01-02T08:06:41.602Z,1.23
2019-01-02T08:08:58.312Z,1.00
2019-01-02T08:11:14.653Z,1.20
2019-01-02T08:13:30.854Z,1.40
2019-01-02T08:15:47.367Z,1.40
2019-01-02T08:18:03.734Z,1.20
2019-01-02T08:20:19.675Z,1.00
2019-01-02T08:22:36.154Z,1.80
2019-01-02T08:24:51.985Z,1.52
2019-01-02T08:27:08.276Z,1.17
2019-01-02T08:29:24.239Z,1.20
2019-01-02T08:31:39.908Z,1.20
2019-01-02T08:33:56.367Z,1.30
2019-01-02T08:36:12.768Z,0.90
2019-01-02T08:38:29.147Z,1.07
2019-01-02T08:40:45.666Z,1.40
2019-01-02T08:43:02.496Z,1.20
2019-01-02T08:45:18.362Z,1.00
2019-01-02T08:47:35.373Z,1.22
2019-01-02T08:49:51.341Z,1.17
2019-01-02T08:52:07.514Z,1.20
2019-01-02T08:54:23.617Z,1.00
2019-01-02T08:56:39.496Z,1.20
2019-01-02T08:58:54.975Z,1.00
2019-01-02T09:01:11.185Z,1.10
2019-01-02T09:03:27.407Z,1.30
2019-01-02T09:05:43.718Z,1.00
2019-01-02T09:07:59.741Z,1.25
2019-01-02T09:10:25.306Z,1.42
2019-01-02T09:13:13.538Z,1.20
2019-01-02T09:15:53.770Z,1.23
2019-01-02T09:18:49.675Z,1.07
2019-01-02T09:22:05.455Z,1.00
2019-01-02T09:24:43.483Z,1.40
2019-01-02T09:27:34.923Z,1.20
2019-01-02T09:30:15.302Z,1.30
2019-01-02T09:33:19.228Z,1.07
2019-01-02T09:35:41.254Z,1.10
2019-01-02T09:38:29.868Z,0.90
2019-01-02T09:41:10.282Z,1.20
2019-01-02T09:43:58.848Z,1.50
2019-01-02T09:47:05.902Z,1.10
2019-01-02T09:49:49.930Z,1.40
2019-01-02T09:52:48.537Z,1.07
2019-01-02T09:55:46.699Z,1.50
2019-01-02T09:59:00.466Z,1.50
2019-01-02T10:01:31.907Z,1.50
2019-01-02T10:04:30.094Z,1.02
2019-01-02T10:07:27.805Z,1.60
2019-01-02T10:10:04.543Z,1.32
2019-01-02T10:12:34.389Z,1.20
2019-01-02T10:15:06.084Z,1.30
2019-01-02T10:17:35.073Z,1.60
2019-01-02T10:20:16.975Z,1.50
2019-01-02T10:23:09.732Z,1.20
2019-01-02T10:25:51.960Z,1.70
2019-01-02T10:28:51.165Z,1.10
2019-01-02T10:31:49.059Z,1.60
2019-01-02T10:34:35.827Z,1.47
2019-01-02T10:37:14.763Z,1.50
2019-01-02T10:39:59.515Z,1.30
2019-01-02T10:42:57.960Z,1.50
2019-01-02T10:45:34.788Z,1.20
2019-01-02T10:48:10.768Z,1.50
2019-01-02T10:50:48.022Z,1.47
2019-01-02T10:53:13.819Z,1.30
2019-01-02T10:56:27.222Z,1.27
2019-01-02T10:59:30.778Z,1.23
2019-01-02T11:02:19.083Z,1.60
2019-01-02T11:04:46.917Z,1.20
2019-01-02T11:07:26.398Z,1.65
2019-01-02T11:10:06.584Z,1.20
2019-01-02T11:12:41.875Z,1.00
2019-01-02T11:15:48.734Z,1.60
2019-01-02T11:18:33.667Z,1.20
2019-01-02T11:21:03.591Z,1.40
2019-01-02T11:23:51.575Z,1.30
2019-01-02T11:26:32.111Z,1.50
2019-01-02T11:29:20.106Z,1.20
2019-01-02T11:31:59.740Z,1.57
2019-01-02T11:34:49.609Z,1.20
2019-01-02T11:37:31.142Z,1.45
2019-01-02T11:40:08.219Z,1.40
2019-01-02T11:42:56.788Z,1.30
2019-01-02T11:45:08.963Z,1.50
2019-01-02T11:47:14.688Z,1.30
2019-01-02T11:49:19.832Z,1.40
2019-01-02T11:51:25.172Z,1.70
2019-01-02T11:53:33.223Z,1.40
2019-01-02T11:55:38.156Z,1.47
2019-01-02T11:57:43.592Z,1.37
2019-01-02T11:59:47.875Z,1.20
2019-01-02T12:01:56.347Z,1.17
2019-01-02T12:04:01.251Z,1.80
2019-01-02T12:06:05.791Z,1.20
2019-01-02T12:08:10.491Z,1.20
2019-01-02T12:10:16.391Z,1.30
2019-01-02T12:12:21.101Z,1.30
2019-01-02T12:14:25.878Z,1.30
2019-01-02T12:16:31.011Z,1.10
2019-01-02T12:18:35.590Z,1.20
2019-01-02T12:20:40.439Z,1.03
2019-01-02T12:22:45.203Z,1.20
2019-01-02T12:24:50.791Z,1.30
2019-01-02T12:26:54.942Z,1.30
2019-01-02T12:29:00.923Z,1.20
2019-01-02T12:31:07.269Z,1.10
2019-01-02T12:33:11.835Z,1.30
2019-01-02T12:35:16.451Z,1.30
2019-01-02T12:37:25.168Z,1.20
2019-01-02T12:39:32.419Z,1.13
2019-01-02T12:41:37.046Z,1.20
2019-01-02T12:43:43.691Z,1.10
2019-01-02T12:45:49.409Z,1.17
2019-01-02T12:47:53.890Z,1.10
2019-01-02T12:49:59.386Z,1.70
2019-01-02T12:52:04.441Z,1.10
2019-01-02T12:54:09.951Z,1.50
2019-01-02T12:56:14.285Z,1.10
2019-01-02T12:58:20.399Z,1.20
2019-01-02T13:00:26.617Z,1.30
2019-01-02T13:03:10.917Z,1.10
2019-01-02T13:05:44.019Z,1.23
2019-01-02T13:08:22.470Z,1.10
2019-01-02T13:11:10.769Z,1.50
2019-01-02T13:13:57.763Z,1.03
2019-01-02T13:16:26.421Z,1.10
2019-01-02T13:19:02.139Z,1.10
2019-01-02T13:21:51.239Z,1.75
2019-01-02T13:24:36.734Z,1.10
2019-01-02T13:26:50.434Z,0.90
2019-01-02T13:29:23.787Z,1.47
2019-01-02T13:32:08.860Z,1.20
2019-01-02T13:34:45.088Z,1.10
2019-01-02T13:37:20.311Z,1.00
2019-01-02T13:40:16.035Z,1.20
2019-01-02T13:42:55.504Z,1.10
2019-01-02T13:45:30.977Z,1.30
2019-01-02T13:48:08.167Z,1.33
2019-01-02T13:50:24.541Z,1.30
2019-01-02T13:52:29.156Z,1.17
2019-01-02T13:54:34.113Z,1.00
2019-01-02T13:56:39.860Z,1.30
2019-01-02T13:58:46.475Z,0.90
2019-01-02T14:00:51.156Z,1.00
2019-01-02T14:03:08.265Z,1.43
2019-01-02T14:05:24.954Z,1.00
2019-01-02T14:07:37.612Z,1.20
2019-01-02T14:09:46.999Z,1.20
2019-01-02T14:12:03.159Z,1.20
2019-01-02T14:14:10.988Z,1.10
2019-01-02T14:16:22.609Z,1.00
2019-01-02T14:18:36.515Z,1.00
2019-01-02T14:20:43.331Z,1.07
2019-01-02T14:22:57.098Z,1.07
2019-01-02T14:25:13.544Z,1.20
2019-01-02T14:27:28.520Z,1.10
2019-01-02T14:29:37.860Z,1.10
2019-01-02T14:31:43.242Z,1.03
2019-01-02T14:33:59.920Z,1.20
2019-01-02T14:36:08.379Z,1.20
2019-01-02T14:38:25.721Z,1.10
2019-01-02T14:40:40.970Z,1.00
2019-01-02T14:43:02.079Z,1.20
2019-01-02T14:45:17.362Z,1.10
2019-01-02T14:47:32.316Z,1.00
2019-01-02T14:49:43.774Z,1.00
2019-01-02T14:52:02.713Z,1.27
2019-01-02T14:54:08.156Z,1.10
2019-01-02T14:56:21.629Z,1.13
2019-01-02T14:58:35.087Z,1.00
2019-01-02T15:00:51.761Z,1.00
2019-01-02T15:03:06.864Z,1.20
2019-01-02T15:05:22.305Z,1.20
2019-01-02T15:07:41.202Z,1.30
2019-01-02T15:10:01.940Z,1.20
2019-01-02T15:12:24.584Z,1.20
2019-01-02T15:14:42.063Z,1.10
2019-01-02T15:16:48.534Z,1.20
2019-01-02T15:19:02.772Z,1.10
2019-01-02T15:21:07.312Z,1.10
2019-01-02T15:23:11.763Z,1.00
2019-01-02T15:25:16.570Z,1.10
2019-01-02T15:27:21.184Z,1.40
2019-01-02T15:29:26.035Z,1.20
2019-01-02T15:31:31.187Z,1.20
2019-01-02T15:33:35.191Z,1.03
2019-01-02T15:35:39.475Z,1.10
2019-01-02T15:37:43.995Z,1.10
2019-01-02T15:39:49.586Z,1.40
2019-01-02T15:41:54.496Z,1.10
2019-01-02T15:43:58.531Z,1.23
2019-01-02T15:46:03.387Z,1.00
2019-01-02T15:48:07.915Z,1.13
2019-01-02T15:50:13.236Z,1.10
2019-01-02T15:52:18.163Z,1.10
2019-01-02T15:54:24.157Z,1.20
2019-01-02T15:56:29.155Z,1.02
2019-01-02T15:58:33.399Z,1.05
2019-01-02T16:00:38.136Z,1.00
2019-01-02T16:02:43.431Z,1.20
2019-01-02T16:04:48.132Z,1.20
2019-01-02T16:06:53.751Z,1.07
2019-01-02T16:08:57.704Z,1.00
2019-01-02T16:11:02.913Z,1.60
2019-01-02T16:13:08.063Z,1.10
2019-01-02T16:15:12.831Z,1.30
2019-01-02T16:17:16.948Z,1.60
2019-01-02T16:19:23.099Z,1.20
2019-01-02T16:21:28.080Z,1.10
2019-01-02T16:23:32.728Z,1.30
2019-01-02T16:25:36.967Z,1.00
2019-01-02T16:27:41.660Z,1.33
2019-01-02T16:29:46.177Z,1.33
2019-01-02T16:31:51.715Z,1.30
2019-01-02T16:33:56.165Z,1.37
2019-01-02T16:36:00.863Z,1.20
2019-01-02T16:38:04.942Z,1.20
2019-01-02T16:40:12.489Z,1.37
2019-01-02T16:42:17.303Z,1.50
2019-01-02T16:44:21.543Z,1.20
2019-01-02T16:46:26.419Z,1.30
2019-01-02T16:48:31.251Z,1.23
2019-01-02T16:50:36.506Z,1.60
2019-01-02T16:52:40.823Z,1.30
2019-01-02T16:54:45.351Z,1.63
2019-01-02T16:56:49.751Z,1.50
2019-01-02T16:58:54.350Z,1.50
2019-01-02T17:00:59.516Z,1.50
2019-01-02T17:03:04.005Z,1.30
2019-01-02T17:05:08.844Z,1.67
2019-01-02T17:07:13.379Z,1.10
2019-01-02T17:09:17.429Z,2.10
2019-01-02T17:11:21.595Z,1.60
2019-01-02T17:13:26.203Z,1.30
2019-01-02T17:15:30.554Z,1.40
2019-01-02T17:17:34.775Z,1.50
2019-01-02T17:19:39.094Z,1.70
2019-01-02T17:21:43.507Z,1.80
2019-01-02T17:23:47.768Z,1.40
2019-01-02T17:25:52.368Z,1.80
2019-01-02T17:27:56.426Z,1.83
2019-01-02T17:30:00.309Z,1.30
2019-01-02T17:32:05.399Z,1.40
2019-01-02T17:34:10.635Z,1.60
2019-01-02T17:36:16.107Z,1.40
2019-01-02T17:38:20.155Z,1.67
2019-01-02T17:40:24.053Z,1.40
2019-01-02T17:42:28.638Z,1.23
2019-01-02T17:44:33.913Z,1.52
2019-01-02T17:46:38.412Z,1.20
2019-01-02T17:48:42.648Z,1.30
2019-01-02T17:50:46.893Z,1.70
2019-01-02T17:52:51.680Z,1.40
2019-01-02T17:54:57.054Z,1.50
2019-01-02T17:57:06.231Z,1.33
2019-01-02T17:59:11.178Z,1.50
2019-01-02T18:01:15.576Z,1.50
2019-01-02T18:03:20.104Z,1.50
2019-01-02T18:05:30.132Z,1.60
2019-01-02T18:07:35.396Z,1.40
2019-01-02T18:09:39.871Z,1.53
2019-01-02T18:11:45.671Z,1.05
2019-01-02T18:13:49.907Z,1.60
2019-01-02T18:15:54.758Z,1.70
2019-01-02T18:17:58.969Z,1.30
2019-01-02T18:20:03.682Z,1.65
2019-01-02T18:22:07.722Z,1.83
2019-01-02T18:24:12.402Z,1.40
2019-01-02T18:26:16.376Z,1.10
2019-01-02T18:28:21.778Z,1.57
2019-01-02T18:30:26.748Z,1.40
2019-01-02T18:32:31.436Z,1.60
2019-01-02T18:34:36.163Z,1.70
2019-01-02T18:36:41.228Z,1.40
2019-01-02T18:38:45.906Z,1.40
2019-01-02T18:40:50.732Z,1.60
2019-01-02T18:42:55.095Z,1.60
2019-01-02T18:44:59.450Z,1.70
2019-01-02T18:47:03.729Z,1.80
2019-01-02T18:49:08.372Z,1.80
2019-01-02T18:51:13.452Z,1.70
2019-01-02T18:53:17.623Z,1.25
2019-01-02T18:55:22.347Z,1.60
2019-01-02T18:57:27.518Z,1.60
2019-01-02T18:59:31.778Z,1.40
2019-01-02T19:01:36.878Z,1.70
2019-01-02T19:03:40.949Z,1.40
2019-01-02T19:05:45.856Z,1.43
2019-01-02T19:07:51.223Z,1.50
2019-01-02T19:09:56.462Z,1.83
2019-01-02T19:12:00.520Z,1.60
2019-01-02T19:14:04.824Z,1.50
2019-01-02T19:16:09.534Z,1.80
2019-01-02T19:18:14.111Z,1.40
2019-01-02T19:20:18.428Z,1.57
2019-01-02T19:22:22.596Z,1.70
2019-01-02T19:24:27.183Z,1.80
2019-01-02T19:26:31.870Z,1.90
2019-01-02T19:28:36.531Z,1.60
2019-01-02T19:30:40.948Z,1.50
2019-01-02T19:32:45.888Z,1.50
2019-01-02T19:34:50.351Z,1.80
2019-01-02T19:36:55.182Z,1.70
2019-01-02T19:38:59.651Z,1.70
2019-01-02T19:41:04.922Z,1.80
2019-01-02T19:43:09.375Z,1.80
2019-01-02T19:45:14.372Z,1.70
2019-01-02T19:47:18.291Z,1.50
2019-01-02T19:49:22.775Z,1.57
2019-01-02T19:51:27.343Z,1.70
2019-01-02T19:53:31.940Z,2.33
2019-01-02T19:55:35.878Z,1.50
2019-01-02T19:57:40.224Z,1.50
2019-01-02T20:02:08.081Z,1.90
2019-01-02T20:04:12.831Z,1.80
2019-01-02T20:06:16.919Z,1.83
2019-01-02T20:08:22.015Z,1.60
2019-01-02T20:10:26.780Z,1.80
2019-01-02T20:12:32.167Z,2.10
2019-01-02T20:14:36.587Z,1.90
2019-01-02T20:16:41.247Z,1.90
2019-01-02T20:18:46.124Z,1.80
2019-01-02T20:20:50.273Z,2.00
2019-01-02T20:22:55.230Z,1.87
2019-01-02T20:24:59.283Z,2.00
2019-01-02T20:27:03.603Z,1.50
2019-01-02T20:29:08.071Z,1.83
2019-01-02T20:31:12.775Z,1.70
2019-01-02T20:33:17.435Z,1.50
2019-01-02T20:35:22.643Z,1.60
2019-01-02T20:37:27.190Z,2.10
2019-01-02T20:39:32.155Z,1.80
2019-01-02T20:41:36.897Z,1.80
2019-01-02T20:43:41.561Z,1.80
2019-01-02T20:45:46.467Z,1.87
2019-01-02T20:47:50.677Z,1.63
2019-01-02T20:49:55.118Z,1.72
2019-01-02T20:51:59.907Z,1.90
2019-01-02T20:54:04.458Z,2.10
2019-01-02T20:56:08.439Z,1.80
2019-01-02T20:58:13.257Z,2.00
2019-01-02T21:00:18.507Z,2.00
2019-01-02T21:02:22.613Z,1.87
2019-01-02T21:04:27.156Z,1.80
2019-01-02T21:06:32.188Z,1.70
2019-01-02T21:08:37.415Z,1.73
2019-01-02T21:10:42.103Z,2.13
2019-01-02T21:12:46.937Z,2.10
2019-01-02T21:14:52.203Z,2.40
2019-01-02T21:16:56.287Z,2.10
2019-01-02T21:19:01.408Z,1.90
2019-01-02T21:21:05.833Z,1.93
2019-01-02T21:23:29.459Z,1.73
2019-01-02T21:25:53.247Z,1.90
2019-01-02T21:28:09.163Z,2.10
2019-01-02T21:30:25.287Z,2.10
2019-01-02T21:32:40.971Z,2.00
2019-01-02T21:34:56.992Z,2.10
2019-01-02T21:37:13.827Z,1.87
2019-01-02T21:39:30.023Z,1.70
2019-01-02T21:41:45.723Z,2.43
2019-01-02T21:44:01.443Z,2.10
2019-01-02T21:46:17.960Z,1.80
2019-01-02T21:48:33.994Z,1.73
2019-01-02T21:50:50.328Z,1.73
2019-01-02T21:53:06.943Z,1.90
2019-01-02T21:55:23.235Z,2.13
2019-01-02T21:57:39.790Z,2.80
2019-01-02T21:59:55.423Z,2.80
2019-01-02T22:02:10.501Z,1.90
2019-01-02T22:07:02.281Z,2.20
2019-01-02T22:09:25.448Z,1.93
2019-01-02T22:14:18.046Z,1.80
2019-01-02T22:16:41.358Z,1.43
2019-01-02T22:18:57.942Z,1.90
2019-01-02T22:21:14.015Z,2.10
2019-01-02T22:23:30.288Z,2.00
2019-01-02T22:25:46.508Z,1.60
2019-01-02T22:28:02.729Z,2.00
2019-01-02T22:30:18.863Z,1.80
2019-01-02T22:32:34.628Z,1.60
2019-01-02T22:34:44.790Z,1.60
2019-01-02T22:37:08.712Z,1.80
2019-01-02T22:40:10.640Z,1.70
2019-01-02T22:44:59.410Z,1.80
2019-01-02T22:47:17.343Z,2.40
2019-01-02T22:49:33.535Z,1.80
2019-01-02T22:51:49.909Z,2.17
2019-01-02T22:56:29.960Z,2.23
2019-01-02T22:58:48.887Z,2.50
2019-01-02T23:01:35.651Z,2.10
2019-01-02T23:03:57.215Z,2.22
2019-01-02T23:06:32.592Z,2.23
2019-01-02T23:09:13.853Z,2.30
2019-01-02T23:11:49.435Z,2.67
2019-01-02T23:19:47.199Z,2.80
2019-01-02T23:22:21.890Z,2.70
2019-01-02T23:24:57.451Z,2.60
2019-01-02T23:27:30.583Z,2.80
2019-01-02T23:30:05.627Z,2.87
2019-01-02T23:32:41.044Z,2.60
2019-01-02T23:35:16.207Z,2.20
2019-01-02T23:37:50.961Z,2.50
2019-01-02T23:40:24.537Z,2.50
2019-01-02T23:42:58.987Z,2.30
2019-01-02T23:45:34.530Z,2.50
2019-01-02T23:48:09.392Z,2.40
2019-01-02T23:50:44.700Z,2.77
2019-01-02T23:53:20.059Z,2.70
2019-01-02T23:55:55.380Z,2.77
2019-01-02T23:58:36.443Z,2.73
